Isle of Eigg, United Kingdom
Current Conditions -  °F | °C
As of 12:20 PM on Thursday 29 Jan 2015 (Local Time) from EGPU Reporting Station
Snow Showers Snow Showers  
Wind Chill: 26°   Ceiling: 1600
Heat Index: 36°   Visibility: 1.4mi
Dew Point: 34°   Wind: 16mph
Humidity: 93%   Direction: 340°NNW
Pressure: 28.79"   Gusts: NA
Location:  56.9°N, 6.14°W
Report Text: EGPU 291220Z 34014KT 2300 SHSN SCT011 BKN016 02/01 Q0975
Loading
Personal Weather Stations






























Interactive Weather Map New forecast layout! Learn more

10-Day Weather Forecast

Advertisements
Track Severe Weather on mobile